createdAt,value
2022-10-15T00:00:43.986Z,30.60
2022-10-15T00:05:41.408Z,29.55
2022-10-15T00:10:35.679Z,32.38
2022-10-15T00:15:30.339Z,32.88
2022-10-15T00:20:24.815Z,31.08
2022-10-15T00:25:19.067Z,32.92
2022-10-15T00:30:14.421Z,32.88
2022-10-15T00:35:11.032Z,32.20
2022-10-15T00:40:06.516Z,32.83
2022-10-15T00:45:00.324Z,29.77
2022-10-15T00:50:15.178Z,31.52
2022-10-15T00:55:15.007Z,31.02
2022-10-15T01:00:11.647Z,32.22
2022-10-15T01:05:07.448Z,29.90
2022-10-15T01:10:01.261Z,30.17
2022-10-15T01:15:19.995Z,30.58
2022-10-15T01:20:47.874Z,30.58
2022-10-15T01:25:59.916Z,32.72
2022-10-15T01:31:09.379Z,34.47
2022-10-15T01:36:32.087Z,33.90
2022-10-15T01:41:28.694Z,35.27
2022-10-15T01:46:27.769Z,33.67
2022-10-15T01:51:45.130Z,35.78
2022-10-15T01:56:41.558Z,33.10
2022-10-15T02:01:34.910Z,33.10
2022-10-15T02:06:38.297Z,30.55
2022-10-15T02:11:39.572Z,31.50
2022-10-15T02:16:46.150Z,31.45
2022-10-15T02:22:16.723Z,31.73
2022-10-15T02:27:13.566Z,32.70
2022-10-15T02:32:07.636Z,32.30
2022-10-15T02:37:03.289Z,31.83
2022-10-15T02:41:56.928Z,35.40
2022-10-15T02:46:51.126Z,33.53
2022-10-15T02:51:46.644Z,33.35
2022-10-15T02:56:42.670Z,32.88
2022-10-15T03:01:36.886Z,32.63
2022-10-15T03:06:31.663Z,33.08
2022-10-15T03:11:29.433Z,31.67
2022-10-15T03:16:24.021Z,31.13
2022-10-15T03:26:10.348Z,32.28
2022-10-15T03:31:05.367Z,31.17
2022-10-15T03:35:59.129Z,30.27
2022-10-15T03:40:53.169Z,30.35
2022-10-15T03:46:05.890Z,30.65
2022-10-15T03:51:04.437Z,29.23
2022-10-15T03:56:03.352Z,29.60
2022-10-15T04:00:56.566Z,30.10
2022-10-15T04:05:54.732Z,29.02
2022-10-15T04:10:53.690Z,28.48
2022-10-15T04:15:47.741Z,29.23
2022-10-15T04:20:43.001Z,30.98
2022-10-15T04:25:42.776Z,30.40
2022-10-15T04:30:37.973Z,33.67
2022-10-15T04:35:35.903Z,31.42
2022-10-15T04:40:41.622Z,31.25
2022-10-15T04:45:35.710Z,32.15
2022-10-15T04:50:29.496Z,29.58
2022-10-15T04:55:45.156Z,28.58
2022-10-15T05:00:37.931Z,28.08
2022-10-15T05:05:35.766Z,28.40
2022-10-15T05:10:31.489Z,29.17
2022-10-15T05:15:29.525Z,29.08
2022-10-15T05:20:22.960Z,29.42
2022-10-15T05:25:17.525Z,29.90
2022-10-15T05:35:13.140Z,30.17
2022-10-15T05:40:21.919Z,28.75
2022-10-15T05:45:28.089Z,29.17
2022-10-15T05:50:24.629Z,29.15
2022-10-15T05:55:21.817Z,29.85
2022-10-15T06:00:17.560Z,26.98
2022-10-15T06:05:19.198Z,27.23
2022-10-15T06:10:13.252Z,27.00
2022-10-15T06:15:08.949Z,26.88
2022-10-15T06:20:03.773Z,25.75
2022-10-15T06:24:58.137Z,25.33
2022-10-15T06:29:52.910Z,24.85
2022-10-15T06:34:46.810Z,25.25
2022-10-15T06:39:44.795Z,27.30
2022-10-15T06:44:38.139Z,27.23
2022-10-15T06:49:31.493Z,26.45
2022-10-15T06:54:26.031Z,28.70
2022-10-15T06:59:20.725Z,27.02
2022-10-15T07:04:15.361Z,27.10
2022-10-15T07:09:09.592Z,25.80
2022-10-15T07:14:03.444Z,24.58
2022-10-15T07:18:57.123Z,25.40
2022-10-15T07:23:50.813Z,24.45
2022-10-15T07:28:46.003Z,25.95
2022-10-15T07:33:39.842Z,27.15
2022-10-15T07:38:34.314Z,26.13
2022-10-15T07:43:28.993Z,25.88
2022-10-15T07:48:23.766Z,27.33
2022-10-15T07:53:18.194Z,27.58
2022-10-15T07:58:18.336Z,30.83
2022-10-15T08:08:05.531Z,27.58
2022-10-15T08:12:59.477Z,24.13
2022-10-15T08:17:53.774Z,20.98
2022-10-15T08:22:48.065Z,19.63
2022-10-15T08:27:42.076Z,27.90
2022-10-15T08:32:36.111Z,38.30
2022-10-15T08:37:30.270Z,28.00
2022-10-15T08:42:41.781Z,28.55
2022-10-15T08:47:40.949Z,32.70
2022-10-15T08:52:40.224Z,35.33
2022-10-15T08:57:39.288Z,29.58
2022-10-15T09:02:40.163Z,31.42
2022-10-15T09:07:54.489Z,29.95
2022-10-15T09:13:26.467Z,36.58
2022-10-15T09:18:24.952Z,35.55
2022-10-15T09:23:21.919Z,35.15
2022-10-15T09:28:16.123Z,34.40
2022-10-15T09:33:27.565Z,33.83
2022-10-15T09:38:29.174Z,32.13
2022-10-15T09:43:34.378Z,32.47
2022-10-15T09:48:29.048Z,35.67
2022-10-15T09:53:28.402Z,36.53
2022-10-15T09:58:25.753Z,34.47
2022-10-15T10:03:20.020Z,35.30
2022-10-15T10:08:20.533Z,31.23
2022-10-15T10:13:26.523Z,31.90
2022-10-15T10:18:25.501Z,33.70
2022-10-15T10:23:24.625Z,35.55
2022-10-15T10:28:24.081Z,33.10
2022-10-15T10:33:33.474Z,34.53
2022-10-15T10:38:55.261Z,34.20
2022-10-15T10:43:56.245Z,31.67
2022-10-15T10:48:50.541Z,29.95
2022-10-15T10:53:59.175Z,33.83
2022-10-15T10:58:58.137Z,33.70
2022-10-15T11:03:52.093Z,35.40
2022-10-15T11:09:15.574Z,30.50
2022-10-15T11:14:27.653Z,29.45
2022-10-15T11:20:05.647Z,24.23
2022-10-15T11:25:20.218Z,27.92
2022-10-15T11:30:47.758Z,25.35
2022-10-15T11:36:09.679Z,28.67
2022-10-15T11:41:41.019Z,26.00
2022-10-15T11:46:45.790Z,23.85
2022-10-15T11:52:17.657Z,22.88
2022-10-15T11:57:14.242Z,23.23
2022-10-15T12:02:11.849Z,24.23
2022-10-15T12:07:07.444Z,25.33
2022-10-15T12:12:09.090Z,23.05
2022-10-15T12:17:20.614Z,25.30
2022-10-15T12:22:13.144Z,22.95
2022-10-15T12:27:21.385Z,21.25
2022-10-15T12:32:29.401Z,23.73
2022-10-15T12:37:38.485Z,23.23
2022-10-15T12:42:35.634Z,21.40
2022-10-15T12:48:04.629Z,20.15
2022-10-15T12:53:00.129Z,21.65
2022-10-15T12:58:02.420Z,13.98
2022-10-15T13:02:59.997Z,15.48
2022-10-15T13:07:53.410Z,13.50
2022-10-15T13:12:53.642Z,13.00
2022-10-15T13:17:49.244Z,10.57
2022-10-15T13:22:47.083Z,10.63
2022-10-15T13:27:40.810Z,9.88
2022-10-15T13:32:59.872Z,8.88
2022-10-15T13:37:54.011Z,7.97
2022-10-15T13:43:02.950Z,10.38
2022-10-15T13:47:57.535Z,9.93
2022-10-15T13:52:59.416Z,11.50
2022-10-15T13:57:58.965Z,11.63
2022-10-15T14:03:27.523Z,12.00
2022-10-15T14:08:23.168Z,11.82
2022-10-15T14:13:15.918Z,8.95
2022-10-15T14:18:10.110Z,12.18
2022-10-15T14:23:03.360Z,11.40
2022-10-15T14:27:57.883Z,9.85
2022-10-15T14:32:53.069Z,10.43
2022-10-15T14:37:47.262Z,9.95
2022-10-15T14:42:42.869Z,10.20
2022-10-15T14:47:36.545Z,9.93
2022-10-15T14:57:29.626Z,9.25
2022-10-15T15:02:26.607Z,7.32
2022-10-15T15:07:21.882Z,8.27
2022-10-15T15:12:24.112Z,8.52
2022-10-15T15:17:25.189Z,8.60
2022-10-15T15:22:32.714Z,9.10
2022-10-15T15:27:29.269Z,8.55
2022-10-15T15:32:23.575Z,9.98
2022-10-15T15:37:19.765Z,9.32
2022-10-15T15:42:17.673Z,9.45
2022-10-15T15:47:11.602Z,9.25
2022-10-15T15:52:09.210Z,9.25
2022-10-15T15:57:03.836Z,8.50
2022-10-15T16:01:57.893Z,7.03
2022-10-15T16:06:52.191Z,7.30
2022-10-15T16:11:46.562Z,6.38
2022-10-15T16:16:41.311Z,7.43
2022-10-15T16:21:35.187Z,7.22
2022-10-15T16:26:28.496Z,7.28
2022-10-15T16:31:27.864Z,7.22
2022-10-15T16:36:28.456Z,6.88
2022-10-15T16:41:22.161Z,6.70
2022-10-15T16:46:17.913Z,8.93
2022-10-15T16:51:15.209Z,9.45
2022-10-15T16:56:16.038Z,8.40
2022-10-15T17:01:13.712Z,8.23
2022-10-15T17:06:10.849Z,9.00
2022-10-15T17:11:05.496Z,10.07
2022-10-15T17:16:24.926Z,10.07
2022-10-15T17:21:20.883Z,9.35
2022-10-15T17:26:17.111Z,12.98
2022-10-15T17:31:12.960Z,12.10
2022-10-15T17:36:17.948Z,13.23
2022-10-15T17:41:18.339Z,13.98
2022-10-15T17:46:17.964Z,14.55
2022-10-15T17:51:14.727Z,13.98
2022-10-15T17:56:20.473Z,14.02
2022-10-15T18:01:59.608Z,13.77
2022-10-15T18:06:55.038Z,13.18
2022-10-15T18:11:51.829Z,14.02
2022-10-15T18:16:46.329Z,14.85
2022-10-15T18:21:40.381Z,14.98
2022-10-15T18:26:33.950Z,13.68
2022-10-15T18:31:27.797Z,14.32
2022-10-15T18:36:33.484Z,14.35
2022-10-15T18:41:36.696Z,13.80
2022-10-15T18:46:33.970Z,13.32
2022-10-15T18:51:30.682Z,14.45
2022-10-15T18:56:26.484Z,15.65
2022-10-15T19:01:35.471Z,16.67
2022-10-15T19:06:33.363Z,16.48
2022-10-15T19:11:30.454Z,16.48
2022-10-15T19:16:27.864Z,16.63
2022-10-15T19:21:30.201Z,16.45
2022-10-15T19:26:26.156Z,14.85
2022-10-15T19:31:29.896Z,17.33
2022-10-15T19:36:24.883Z,16.77
2022-10-15T19:41:20.441Z,17.45
2022-10-15T19:46:14.386Z,18.33
2022-10-15T19:51:08.788Z,16.30
2022-10-15T19:56:08.544Z,16.70
2022-10-15T20:01:03.247Z,16.70
2022-10-15T20:05:58.755Z,14.90
2022-10-15T20:10:53.749Z,15.27
2022-10-15T20:15:51.195Z,14.48
2022-10-15T20:20:47.042Z,14.52
2022-10-15T20:25:41.465Z,15.10
2022-10-15T20:30:34.693Z,15.75
2022-10-15T20:35:28.285Z,15.27
2022-10-15T20:40:22.902Z,13.85
2022-10-15T20:45:19.413Z,13.98
2022-10-15T20:50:36.443Z,13.70
2022-10-15T20:55:37.336Z,13.85
2022-10-15T21:00:33.994Z,12.90
2022-10-15T21:05:29.805Z,13.52
2022-10-15T21:10:25.718Z,14.48
2022-10-15T21:15:25.603Z,14.02
2022-10-15T21:20:21.402Z,13.85
2022-10-15T21:25:18.542Z,13.13
2022-10-15T21:30:14.877Z,14.38
2022-10-15T21:35:09.533Z,15.07
2022-10-15T21:40:03.746Z,15.35
2022-10-15T21:44:59.158Z,15.38
2022-10-15T21:49:52.163Z,15.18
2022-10-15T21:54:45.683Z,14.95
2022-10-15T21:59:39.261Z,15.02
2022-10-15T22:04:36.538Z,14.02
2022-10-15T22:09:30.828Z,14.75
2022-10-15T22:14:23.984Z,14.10
2022-10-15T22:19:19.297Z,15.50
2022-10-15T22:24:16.197Z,16.90
2022-10-15T22:29:16.436Z,16.75
2022-10-15T22:34:09.943Z,17.33
2022-10-15T22:39:05.846Z,16.55
2022-10-15T22:44:00.359Z,14.88
2022-10-15T22:48:54.589Z,15.90
2022-10-15T22:53:48.742Z,16.13
2022-10-15T23:03:35.389Z,15.00
2022-10-15T23:08:29.566Z,17.02
2022-10-15T23:13:24.121Z,16.23
2022-10-15T23:18:18.301Z,16.80
2022-10-15T23:23:12.309Z,16.27
2022-10-15T23:28:06.651Z,16.48
2022-10-15T23:33:03.421Z,17.02
2022-10-15T23:37:58.047Z,16.75
2022-10-15T23:42:52.621Z,16.65
2022-10-15T23:47:46.908Z,17.48
2022-10-15T23:52:41.245Z,18.98
2022-10-15T23:57:37.179Z,18.42
